createdAt,value
2023-01-30T00:01:18.833Z,10.10
2023-01-30T00:03:48.320Z,10.05
2023-01-30T00:06:16.191Z,9.48
2023-01-30T00:08:43.993Z,9.13
2023-01-30T00:11:16.041Z,9.55
2023-01-30T00:13:44.691Z,9.47
2023-01-30T00:16:12.890Z,10.02
2023-01-30T00:18:42.076Z,9.57
2023-01-30T00:21:13.253Z,9.50
2023-01-30T00:23:41.078Z,10.10
2023-01-30T00:26:10.529Z,9.95
2023-01-30T00:28:40.160Z,10.50
2023-01-30T00:31:08.755Z,10.20
2023-01-30T00:33:38.554Z,9.77
2023-01-30T00:36:07.287Z,9.52
2023-01-30T00:38:36.942Z,8.95
2023-01-30T00:41:07.736Z,10.43
2023-01-30T00:43:54.377Z,9.23
2023-01-30T00:46:47.309Z,10.00
2023-01-30T00:49:15.109Z,10.05
2023-01-30T00:51:43.146Z,9.55
2023-01-30T00:54:12.363Z,9.48
2023-01-30T00:56:40.093Z,9.73
2023-01-30T00:59:07.843Z,9.40
2023-01-30T01:01:35.977Z,9.60
2023-01-30T01:04:03.961Z,10.20
2023-01-30T01:06:31.781Z,9.57
2023-01-30T01:08:59.714Z,10.05
2023-01-30T01:11:28.864Z,9.75
2023-01-30T01:13:58.545Z,10.68
2023-01-30T01:16:27.874Z,9.93
2023-01-30T01:18:56.088Z,9.50
2023-01-30T01:21:24.405Z,10.05
2023-01-30T01:23:55.816Z,10.63
2023-01-30T01:26:24.371Z,9.60
2023-01-30T01:28:57.124Z,9.73
2023-01-30T01:31:25.635Z,9.38
2023-01-30T01:33:53.586Z,9.43
2023-01-30T01:36:49.808Z,10.50
2023-01-30T01:39:10.530Z,9.73
2023-01-30T01:41:37.385Z,10.30
2023-01-30T01:44:08.854Z,9.75
2023-01-30T01:46:39.791Z,9.73
2023-01-30T01:49:15.085Z,9.90
2023-01-30T01:51:51.075Z,9.95
2023-01-30T01:54:24.969Z,9.95
2023-01-30T01:56:53.044Z,9.48
2023-01-30T01:59:26.025Z,9.32
2023-01-30T02:04:49.242Z,8.50
2023-01-30T02:09:46.136Z,8.45
2023-01-30T02:12:16.456Z,9.65
2023-01-30T02:14:46.157Z,9.02
2023-01-30T02:17:14.688Z,9.05
2023-01-30T02:19:50.019Z,9.23
2023-01-30T02:22:33.797Z,9.10
2023-01-30T02:25:23.368Z,9.13
2023-01-30T02:28:29.974Z,8.98
2023-01-30T02:31:22.079Z,8.65
2023-01-30T02:33:58.627Z,9.40
2023-01-30T02:36:35.721Z,9.50
2023-01-30T02:39:09.812Z,8.70
2023-01-30T02:41:47.558Z,8.60
2023-01-30T02:44:24.141Z,9.25
2023-01-30T02:46:58.200Z,9.00
2023-01-30T02:49:31.776Z,8.90
2023-01-30T02:52:01.843Z,9.13
2023-01-30T02:54:29.718Z,9.20
2023-01-30T02:56:59.619Z,8.48
2023-01-30T02:59:32.928Z,8.18
2023-01-30T03:02:28.640Z,8.43
2023-01-30T03:05:18.930Z,8.60
2023-01-30T03:07:55.789Z,9.40
2023-01-30T03:10:33.555Z,8.45
2023-01-30T03:13:14.473Z,8.95
2023-01-30T03:15:49.313Z,8.88
2023-01-30T03:18:20.490Z,9.02
2023-01-30T03:20:48.901Z,8.52
2023-01-30T03:23:16.788Z,8.43
2023-01-30T03:25:47.155Z,8.75
2023-01-30T03:28:17.335Z,8.98
2023-01-30T03:30:45.454Z,8.73
2023-01-30T03:33:14.646Z,8.77
2023-01-30T03:35:49.418Z,8.73
2023-01-30T03:38:18.264Z,9.70
2023-01-30T03:40:47.719Z,9.65
2023-01-30T03:43:16.456Z,8.82
2023-01-30T03:45:44.274Z,8.77
2023-01-30T03:48:12.298Z,9.38
2023-01-30T03:50:40.084Z,8.90
2023-01-30T03:53:09.375Z,9.25
2023-01-30T03:55:37.178Z,8.98
2023-01-30T03:58:05.029Z,9.20
2023-01-30T04:00:34.329Z,9.32
2023-01-30T04:03:02.911Z,9.27
2023-01-30T04:05:30.744Z,8.75
2023-01-30T04:08:04.252Z,8.95
2023-01-30T04:10:33.470Z,9.23
2023-01-30T04:13:01.641Z,9.98
2023-01-30T04:15:30.443Z,8.95
2023-01-30T04:18:16.760Z,8.75
2023-01-30T04:20:52.644Z,8.73
2023-01-30T04:23:29.414Z,9.80
2023-01-30T04:25:59.495Z,9.10
2023-01-30T04:28:28.494Z,9.68
2023-01-30T04:30:56.652Z,9.40
2023-01-30T04:33:43.410Z,9.13
2023-01-30T04:36:13.663Z,9.40
2023-01-30T04:38:42.569Z,8.90
2023-01-30T04:41:11.796Z,8.90
2023-01-30T04:43:42.628Z,9.38
2023-01-30T04:46:22.028Z,8.52
2023-01-30T04:48:49.949Z,9.20
2023-01-30T04:51:17.893Z,8.95
2023-01-30T04:53:45.933Z,8.52
2023-01-30T04:56:16.266Z,8.50
2023-01-30T04:58:44.691Z,8.48
2023-01-30T05:01:17.290Z,8.88
2023-01-30T05:03:45.237Z,8.45
2023-01-30T05:06:13.012Z,8.40
2023-01-30T05:08:40.872Z,8.57
2023-01-30T05:11:08.688Z,8.65
2023-01-30T05:13:37.959Z,7.95
2023-01-30T05:16:06.156Z,8.35
2023-01-30T05:18:34.013Z,7.97
2023-01-30T05:21:06.550Z,7.82
2023-01-30T05:23:34.846Z,7.85
2023-01-30T05:26:02.794Z,7.93
2023-01-30T05:28:30.835Z,6.88
2023-01-30T05:31:03.705Z,7.85
2023-01-30T05:35:59.229Z,6.78
2023-01-30T05:38:27.672Z,7.00
2023-01-30T05:41:02.649Z,6.63
2023-01-30T05:43:31.465Z,6.57
2023-01-30T05:46:01.188Z,6.95
2023-01-30T05:48:30.652Z,6.72
2023-01-30T05:51:00.198Z,6.15
2023-01-30T05:53:30.148Z,6.53
2023-01-30T05:55:59.233Z,6.20
2023-01-30T05:58:27.687Z,6.78
2023-01-30T06:00:55.887Z,6.40
2023-01-30T06:03:23.702Z,6.70
2023-01-30T06:05:52.858Z,6.47
2023-01-30T06:08:20.612Z,6.68
2023-01-30T06:10:48.377Z,6.70
2023-01-30T06:13:16.139Z,6.60
2023-01-30T06:15:44.468Z,5.88
2023-01-30T06:18:12.343Z,6.45
2023-01-30T06:20:40.214Z,6.00
2023-01-30T06:23:09.341Z,5.88
2023-01-30T06:25:37.258Z,6.70
2023-01-30T06:28:05.410Z,6.43
2023-01-30T06:30:33.257Z,6.70
2023-01-30T06:33:01.182Z,6.13
2023-01-30T06:35:29.119Z,6.15
2023-01-30T06:37:56.892Z,6.57
2023-01-30T06:40:26.381Z,6.82
2023-01-30T06:42:54.161Z,6.10
2023-01-30T06:45:21.955Z,6.40
2023-01-30T06:47:51.772Z,6.22
2023-01-30T06:50:21.718Z,5.95
2023-01-30T06:52:51.553Z,5.70
2023-01-30T06:55:21.485Z,5.70
2023-01-30T06:57:51.081Z,5.82
2023-01-30T07:00:21.464Z,5.30
2023-01-30T07:02:49.229Z,5.10
2023-01-30T07:05:17.549Z,5.30
2023-01-30T07:07:45.483Z,5.07
2023-01-30T07:10:13.372Z,5.00
2023-01-30T07:12:41.176Z,5.40
2023-01-30T07:15:11.108Z,5.20
2023-01-30T07:17:40.554Z,5.40
2023-01-30T07:20:09.553Z,5.97
2023-01-30T07:22:37.296Z,5.18
2023-01-30T07:25:05.838Z,5.15
2023-01-30T07:27:34.007Z,4.93
2023-01-30T07:30:01.796Z,5.32
2023-01-30T07:32:30.923Z,5.60
2023-01-30T07:34:58.738Z,5.50
2023-01-30T07:37:26.520Z,4.97
2023-01-30T07:39:54.270Z,5.03
2023-01-30T07:42:22.179Z,5.57
2023-01-30T07:44:49.921Z,5.45
2023-01-30T07:47:20.065Z,4.75
2023-01-30T07:49:49.253Z,4.57
2023-01-30T07:52:19.833Z,4.78
2023-01-30T07:54:47.672Z,4.85
2023-01-30T07:57:15.479Z,4.95
2023-01-30T07:59:43.596Z,4.88
2023-01-30T08:02:12.501Z,5.25
2023-01-30T08:04:40.474Z,5.65
2023-01-30T08:07:09.804Z,5.47
2023-01-30T08:09:37.594Z,5.55
2023-01-30T08:12:05.762Z,5.43
2023-01-30T08:14:33.602Z,4.90
2023-01-30T08:17:01.343Z,5.55
2023-01-30T08:19:29.193Z,5.07
2023-01-30T08:21:56.944Z,5.68
2023-01-30T08:24:26.302Z,5.57
2023-01-30T08:26:54.146Z,5.40
2023-01-30T08:29:21.992Z,5.93
2023-01-30T08:31:49.948Z,5.75
2023-01-30T08:34:17.795Z,6.35
2023-01-30T08:36:46.637Z,5.95
2023-01-30T08:39:14.988Z,5.88
2023-01-30T08:41:44.123Z,5.65
2023-01-30T08:44:12.190Z,5.63
2023-01-30T08:46:40.677Z,6.30
2023-01-30T08:49:08.615Z,5.63
2023-01-30T08:51:36.413Z,5.10
2023-01-30T08:54:04.289Z,5.07
2023-01-30T08:56:32.111Z,5.28
2023-01-30T08:59:01.328Z,5.10
2023-01-30T09:01:29.168Z,4.78
2023-01-30T09:03:57.133Z,4.78
2023-01-30T09:06:26.292Z,4.20
2023-01-30T09:08:54.228Z,4.57
2023-01-30T09:11:22.104Z,4.63
2023-01-30T09:13:49.964Z,4.47
2023-01-30T09:16:19.237Z,4.20
2023-01-30T09:18:47.016Z,4.10
2023-01-30T09:21:15.288Z,3.97
2023-01-30T09:23:43.168Z,3.83
2023-01-30T09:26:11.152Z,4.57
2023-01-30T09:28:39.171Z,3.80
2023-01-30T09:31:07.029Z,4.00
2023-01-30T09:33:36.307Z,3.42
2023-01-30T09:36:04.264Z,3.80
2023-01-30T09:38:32.095Z,3.35
2023-01-30T09:41:29.479Z,3.03
2023-01-30T09:44:15.309Z,2.95
2023-01-30T09:46:49.397Z,2.80
2023-01-30T09:49:30.918Z,2.63
2023-01-30T09:52:09.674Z,2.85
2023-01-30T09:54:40.168Z,2.50
2023-01-30T09:57:21.200Z,2.78
2023-01-30T09:59:57.105Z,2.85
2023-01-30T10:02:42.205Z,2.30
2023-01-30T10:05:11.608Z,2.22
2023-01-30T10:08:01.233Z,2.53
2023-01-30T10:10:42.495Z,1.95
2023-01-30T10:13:28.262Z,2.30
2023-01-30T10:16:05.445Z,2.35
2023-01-30T10:18:51.047Z,1.90
2023-01-30T10:21:33.662Z,1.88
2023-01-30T10:24:20.179Z,2.17
2023-01-30T10:26:49.197Z,1.70
2023-01-30T10:29:21.445Z,1.55
2023-01-30T10:31:52.755Z,2.10
2023-01-30T10:34:25.116Z,2.33
2023-01-30T10:37:00.003Z,1.85
2023-01-30T10:39:36.937Z,2.35
2023-01-30T10:42:12.334Z,2.13
2023-01-30T10:44:42.701Z,2.17
2023-01-30T10:47:45.620Z,2.17
2023-01-30T10:50:18.220Z,2.22
2023-01-30T10:52:55.895Z,2.05
2023-01-30T10:55:37.571Z,1.92
2023-01-30T10:58:15.255Z,1.63
2023-01-30T11:00:48.711Z,1.80
2023-01-30T11:03:24.363Z,2.00
2023-01-30T11:05:54.103Z,2.00
2023-01-30T11:08:28.473Z,1.85
2023-01-30T11:10:58.364Z,1.90
2023-01-30T11:13:30.514Z,2.50
2023-01-30T11:16:00.810Z,1.70
2023-01-30T11:21:27.096Z,1.35
2023-01-30T11:24:06.672Z,1.77
2023-01-30T11:26:46.925Z,1.88
2023-01-30T11:29:28.501Z,1.70
2023-01-30T11:31:56.943Z,2.60
2023-01-30T11:34:25.468Z,1.88
2023-01-30T11:36:53.636Z,1.88
2023-01-30T11:39:25.153Z,2.25
2023-01-30T11:42:04.588Z,1.90
2023-01-30T11:44:35.436Z,1.63
2023-01-30T11:47:08.683Z,1.77
2023-01-30T11:49:58.906Z,2.03
2023-01-30T11:52:31.367Z,1.55
2023-01-30T11:55:05.540Z,1.80
2023-01-30T11:57:41.276Z,1.80
2023-01-30T12:00:18.321Z,1.65
2023-01-30T12:02:49.361Z,1.70
2023-01-30T12:05:26.546Z,1.80
2023-01-30T12:07:54.483Z,1.55
2023-01-30T12:10:32.531Z,2.13
2023-01-30T12:13:03.741Z,1.90
2023-01-30T12:15:34.109Z,2.20
2023-01-30T12:18:06.507Z,1.70
2023-01-30T12:20:47.770Z,1.77
2023-01-30T12:23:24.341Z,1.40
2023-01-30T12:26:00.815Z,1.83
2023-01-30T12:28:36.614Z,1.45
2023-01-30T12:31:09.648Z,1.75
2023-01-30T12:33:37.641Z,1.80
2023-01-30T12:36:14.909Z,1.80
2023-01-30T12:39:05.767Z,1.98
2023-01-30T12:41:49.956Z,1.35
2023-01-30T12:44:38.515Z,1.48
2023-01-30T12:47:26.410Z,1.65
2023-01-30T12:50:07.405Z,1.98
2023-01-30T12:52:51.727Z,2.00
2023-01-30T12:55:32.643Z,1.70
2023-01-30T12:58:05.083Z,1.48
2023-01-30T13:00:46.398Z,1.60
2023-01-30T13:03:24.777Z,1.50
2023-01-30T13:06:03.012Z,1.85
2023-01-30T13:09:00.981Z,1.60
2023-01-30T13:11:42.590Z,1.38
2023-01-30T13:14:21.310Z,1.42
2023-01-30T13:17:11.480Z,1.45
2023-01-30T13:19:46.019Z,1.70
2023-01-30T13:22:22.662Z,1.38
2023-01-30T13:25:01.501Z,1.60
2023-01-30T13:27:32.159Z,2.13
2023-01-30T13:30:05.605Z,1.67
2023-01-30T13:32:38.959Z,1.63
2023-01-30T13:35:15.515Z,1.95
2023-01-30T13:37:45.651Z,1.60
2023-01-30T13:40:18.057Z,2.05
2023-01-30T13:42:53.000Z,2.10
2023-01-30T13:45:24.867Z,1.92
2023-01-30T13:48:03.796Z,2.22
2023-01-30T13:51:10.618Z,2.10
2023-01-30T13:53:47.813Z,1.73
2023-01-30T13:56:40.187Z,1.85
2023-01-30T13:59:16.736Z,1.65
2023-01-30T14:02:17.055Z,1.70
2023-01-30T14:04:47.133Z,1.77
2023-01-30T14:07:25.015Z,1.75
2023-01-30T14:10:04.572Z,1.58
2023-01-30T14:12:36.451Z,1.80
2023-01-30T14:15:17.065Z,1.95
2023-01-30T14:18:01.725Z,2.10
2023-01-30T14:20:32.252Z,1.70
2023-01-30T14:23:03.471Z,1.70
2023-01-30T14:25:43.919Z,2.00
2023-01-30T14:28:49.227Z,1.75
2023-01-30T14:31:52.849Z,1.75
2023-01-30T14:37:45.968Z,1.48
2023-01-30T14:41:10.476Z,1.60
2023-01-30T14:43:52.299Z,1.70
2023-01-30T14:46:55.058Z,2.15
2023-01-30T14:49:37.680Z,1.67
2023-01-30T14:52:05.847Z,1.70
2023-01-30T14:54:44.404Z,1.83
2023-01-30T14:57:24.541Z,2.30
2023-01-30T15:00:14.859Z,1.80
2023-01-30T15:02:49.054Z,1.80
2023-01-30T15:05:21.072Z,1.80
2023-01-30T15:07:53.148Z,1.50
2023-01-30T15:10:37.240Z,2.05
2023-01-30T15:13:47.438Z,1.73
2023-01-30T15:16:39.554Z,1.70
2023-01-30T15:19:38.409Z,1.88
2023-01-30T15:22:18.126Z,1.52
2023-01-30T15:25:17.183Z,1.98
2023-01-30T15:28:00.710Z,1.58
2023-01-30T15:30:44.967Z,1.65
2023-01-30T15:33:22.984Z,2.08
2023-01-30T15:35:57.667Z,1.77
2023-01-30T15:38:28.897Z,1.65
2023-01-30T15:40:59.180Z,1.80
2023-01-30T15:43:50.822Z,1.95
2023-01-30T15:46:26.695Z,1.85
2023-01-30T15:49:08.881Z,1.60
2023-01-30T15:51:37.067Z,1.65
2023-01-30T15:54:11.363Z,2.10
2023-01-30T15:56:41.465Z,2.45
2023-01-30T15:59:32.518Z,1.90
2023-01-30T16:02:04.100Z,1.83
2023-01-30T16:04:32.426Z,2.22
2023-01-30T16:07:00.912Z,1.88
2023-01-30T16:09:28.948Z,1.80
2023-01-30T16:11:56.838Z,1.88
2023-01-30T16:14:26.156Z,1.70
2023-01-30T16:16:57.699Z,2.20
2023-01-30T16:19:29.540Z,1.83
2023-01-30T16:22:00.913Z,1.80
2023-01-30T16:24:32.003Z,1.63
2023-01-30T16:27:02.771Z,2.47
2023-01-30T16:29:34.546Z,2.00
2023-01-30T16:32:02.533Z,2.00
2023-01-30T16:34:33.080Z,2.13
2023-01-30T16:37:05.711Z,1.85
2023-01-30T16:39:36.293Z,2.40
2023-01-30T16:42:19.934Z,1.70
2023-01-30T16:44:49.242Z,1.80
2023-01-30T16:47:24.619Z,2.13
2023-01-30T16:49:54.186Z,2.15
2023-01-30T16:52:24.906Z,1.85
2023-01-30T16:54:55.227Z,1.90
2023-01-30T16:57:36.399Z,1.65
2023-01-30T17:00:17.892Z,1.80
2023-01-30T17:02:52.550Z,1.90
2023-01-30T17:05:23.029Z,2.65
2023-01-30T17:07:52.418Z,2.33
2023-01-30T17:10:53.136Z,2.17
2023-01-30T17:13:37.972Z,1.83
2023-01-30T17:16:34.061Z,1.95
2023-01-30T17:19:02.299Z,1.75
2023-01-30T17:21:35.970Z,2.05
2023-01-30T17:24:06.254Z,2.10
2023-01-30T17:26:34.848Z,2.17
2023-01-30T17:29:02.630Z,2.28
2023-01-30T17:31:31.920Z,2.58
2023-01-30T17:33:59.812Z,2.10
2023-01-30T17:36:29.382Z,1.88
2023-01-30T17:39:00.317Z,2.35
2023-01-30T17:41:30.891Z,2.00
2023-01-30T17:43:59.174Z,1.92
2023-01-30T17:46:36.265Z,1.77
2023-01-30T17:49:04.373Z,1.77
2023-01-30T17:51:32.216Z,1.58
2023-01-30T17:54:00.271Z,1.70
2023-01-30T17:56:34.820Z,2.03
2023-01-30T17:59:04.108Z,1.80
2023-01-30T18:01:33.372Z,2.28
2023-01-30T18:04:01.286Z,1.98
2023-01-30T18:06:29.914Z,1.80
2023-01-30T18:08:57.833Z,2.30
2023-01-30T18:11:25.705Z,1.83
2023-01-30T18:13:53.749Z,2.08
2023-01-30T18:16:24.409Z,2.47
2023-01-30T18:18:53.673Z,2.35
2023-01-30T18:21:22.483Z,2.60
2023-01-30T18:23:50.904Z,2.40
2023-01-30T18:26:19.682Z,2.05
2023-01-30T18:28:48.027Z,2.70
2023-01-30T18:31:16.397Z,1.92
2023-01-30T18:33:45.595Z,2.38
2023-01-30T18:36:16.797Z,2.47
2023-01-30T18:38:45.037Z,2.70
2023-01-30T18:41:14.747Z,2.28
2023-01-30T18:43:43.163Z,2.38
2023-01-30T18:46:13.196Z,2.45
2023-01-30T18:48:42.622Z,2.28
2023-01-30T18:51:13.141Z,2.10
2023-01-30T18:53:43.540Z,2.30
2023-01-30T18:56:13.093Z,2.15
2023-01-30T18:58:41.188Z,2.20
2023-01-30T19:01:14.168Z,1.85
2023-01-30T19:06:13.040Z,1.83
2023-01-30T19:08:42.730Z,2.05
2023-01-30T19:11:29.983Z,2.10
2023-01-30T19:13:58.619Z,2.15
2023-01-30T19:16:28.969Z,2.08
2023-01-30T19:18:57.621Z,2.30
2023-01-30T19:21:26.336Z,2.00
2023-01-30T19:23:57.397Z,2.15
2023-01-30T19:26:26.060Z,1.90
2023-01-30T19:28:53.945Z,2.17
2023-01-30T19:31:23.119Z,1.92
2023-01-30T19:33:55.682Z,2.20
2023-01-30T19:36:25.074Z,2.42
2023-01-30T19:38:53.134Z,2.30
2023-01-30T19:41:24.421Z,1.90
2023-01-30T19:43:52.923Z,1.98
2023-01-30T19:46:21.425Z,2.42
2023-01-30T19:48:50.532Z,2.30
2023-01-30T19:51:20.965Z,2.15
2023-01-30T19:53:52.697Z,2.47
2023-01-30T19:56:24.818Z,2.00
2023-01-30T19:58:57.170Z,2.03
2023-01-30T20:01:27.728Z,1.98
2023-01-30T20:03:55.610Z,2.10
2023-01-30T20:06:26.145Z,1.85
2023-01-30T20:08:58.235Z,2.10
2023-01-30T20:11:28.567Z,2.10
2023-01-30T20:13:56.827Z,2.10
2023-01-30T20:16:27.563Z,2.58
2023-01-30T20:19:00.346Z,2.20
2023-01-30T20:21:29.309Z,2.22
2023-01-30T20:23:57.663Z,1.95
2023-01-30T20:26:29.534Z,2.60
2023-01-30T20:28:58.385Z,2.08
2023-01-30T20:31:28.474Z,1.83
2023-01-30T20:33:57.750Z,2.30
2023-01-30T20:36:27.726Z,2.38
2023-01-30T20:39:01.754Z,2.22
2023-01-30T20:41:32.413Z,1.70
2023-01-30T20:44:00.635Z,2.17
2023-01-30T20:46:30.045Z,2.00
2023-01-30T20:49:01.193Z,2.28
2023-01-30T20:51:30.939Z,1.98
2023-01-30T20:54:00.321Z,1.95
2023-01-30T20:56:33.860Z,2.38
2023-01-30T20:59:02.602Z,1.95
2023-01-30T21:01:30.624Z,1.98
2023-01-30T21:03:58.879Z,1.98
2023-01-30T21:06:37.222Z,1.95
2023-01-30T21:09:15.150Z,1.45
2023-01-30T21:11:44.550Z,2.35
2023-01-30T21:14:12.499Z,2.92
2023-01-30T21:16:40.912Z,2.20
2023-01-30T21:19:13.844Z,2.55
2023-01-30T21:21:46.962Z,2.47
2023-01-30T21:24:15.559Z,2.00
2023-01-30T21:26:47.015Z,2.25
2023-01-30T21:29:17.636Z,2.20
2023-01-30T21:31:46.251Z,2.42
2023-01-30T21:34:14.568Z,1.90
2023-01-30T21:36:42.582Z,3.42
2023-01-30T21:39:31.684Z,2.15
2023-01-30T21:42:19.294Z,2.65
2023-01-30T21:44:48.019Z,2.20
2023-01-30T21:47:15.817Z,2.60
2023-01-30T21:49:45.530Z,2.40
2023-01-30T21:52:13.350Z,2.47
2023-01-30T21:54:41.212Z,3.45
2023-01-30T21:57:10.552Z,2.88
2023-01-30T21:59:38.921Z,2.67
2023-01-30T22:02:07.163Z,2.78
2023-01-30T22:04:36.557Z,3.05
2023-01-30T22:07:06.771Z,3.00
2023-01-30T22:09:34.890Z,2.40
2023-01-30T22:12:02.679Z,2.53
2023-01-30T22:14:33.251Z,2.40
2023-01-30T22:17:01.241Z,2.65
2023-01-30T22:19:35.183Z,2.85
2023-01-30T22:22:03.644Z,2.45
2023-01-30T22:24:31.974Z,2.35
2023-01-30T22:27:00.003Z,2.20
2023-01-30T22:29:29.157Z,2.28
2023-01-30T22:31:58.464Z,2.08
2023-01-30T22:34:26.488Z,2.28
2023-01-30T22:36:54.437Z,2.25
2023-01-30T22:39:22.229Z,2.42
2023-01-30T22:41:50.190Z,2.17
2023-01-30T22:44:17.984Z,2.25
2023-01-30T22:46:45.878Z,2.38
2023-01-30T22:49:15.075Z,3.00
2023-01-30T22:51:43.488Z,2.58
2023-01-30T22:54:15.598Z,2.80
2023-01-30T22:56:45.126Z,2.40
2023-01-30T22:59:13.424Z,2.20
2023-01-30T23:01:43.066Z,2.50
2023-01-30T23:04:13.349Z,2.58
2023-01-30T23:06:43.222Z,2.80
2023-01-30T23:09:16.038Z,3.03
2023-01-30T23:12:05.392Z,2.67
2023-01-30T23:14:33.592Z,2.65
2023-01-30T23:17:01.392Z,2.67
2023-01-30T23:19:28.350Z,2.88
2023-01-30T23:21:57.495Z,2.83
2023-01-30T23:24:25.348Z,2.92
2023-01-30T23:26:53.143Z,2.75
2023-01-30T23:29:21.639Z,2.90
2023-01-30T23:31:49.474Z,2.70
2023-01-30T23:34:19.256Z,3.42
2023-01-30T23:36:47.974Z,2.33
2023-01-30T23:39:17.267Z,3.53
2023-01-30T23:41:45.116Z,2.53
2023-01-30T23:44:12.924Z,2.60
2023-01-30T23:46:42.594Z,2.85
2023-01-30T23:49:13.788Z,2.53
2023-01-30T23:51:43.192Z,2.45
2023-01-30T23:54:12.036Z,2.40
2023-01-30T23:56:43.297Z,2.83
2023-01-30T23:59:11.965Z,3.17
